createdAt,value
2017-10-13T00:00:31.285Z,10.60
2017-10-13T00:02:59.020Z,10.60
2017-10-13T00:05:26.529Z,10.60
2017-10-13T00:07:54.246Z,10.50
2017-10-13T00:10:21.968Z,10.50
2017-10-13T00:12:49.471Z,10.50
2017-10-13T00:15:17.012Z,10.50
2017-10-13T00:17:44.521Z,10.50
2017-10-13T00:20:13.066Z,10.50
2017-10-13T00:22:40.564Z,10.50
2017-10-13T00:25:08.099Z,10.50
2017-10-13T00:27:35.711Z,10.40
2017-10-13T00:30:03.392Z,10.40
2017-10-13T00:32:30.899Z,10.40
2017-10-13T00:34:58.716Z,10.30
2017-10-13T00:37:26.264Z,10.30
2017-10-13T00:39:53.836Z,10.30
2017-10-13T00:42:21.356Z,10.40
2017-10-13T00:44:48.868Z,10.40
2017-10-13T00:47:16.373Z,10.40
2017-10-13T00:49:44.002Z,10.40
2017-10-13T00:52:11.507Z,10.30
2017-10-13T00:54:39.983Z,10.40
2017-10-13T00:57:07.676Z,10.30
2017-10-13T00:59:35.208Z,10.30
2017-10-13T01:02:02.717Z,10.30
2017-10-13T01:04:30.222Z,10.30
2017-10-13T01:06:57.731Z,10.30
2017-10-13T01:09:25.260Z,10.20
2017-10-13T01:11:52.781Z,10.30
2017-10-13T01:14:20.289Z,10.30
2017-10-13T01:16:48.059Z,10.30
2017-10-13T01:19:15.568Z,10.30
2017-10-13T01:21:43.071Z,10.20
2017-10-13T01:24:10.575Z,10.20
2017-10-13T01:26:38.079Z,10.20
2017-10-13T01:29:05.591Z,10.30
2017-10-13T01:31:33.288Z,10.20
2017-10-13T01:34:00.798Z,10.20
2017-10-13T01:36:28.317Z,10.10
2017-10-13T01:38:55.975Z,10.10
2017-10-13T01:41:23.483Z,10.10
2017-10-13T01:43:50.990Z,10.20
2017-10-13T01:46:18.497Z,10.20
2017-10-13T01:48:46.001Z,10.20
2017-10-13T01:51:13.750Z,10.20
2017-10-13T01:53:41.328Z,10.20
2017-10-13T01:56:08.835Z,10.10
2017-10-13T01:58:36.337Z,10.10
2017-10-13T02:01:03.867Z,10.10
2017-10-13T02:03:31.450Z,10.20
2017-10-13T02:05:59.146Z,10.30
2017-10-13T02:08:26.654Z,10.20
2017-10-13T02:10:54.150Z,10.20
2017-10-13T02:13:21.665Z,10.20
2017-10-13T02:15:49.176Z,10.10
2017-10-13T02:18:17.495Z,11.50
2017-10-13T02:20:44.993Z,10.10
2017-10-13T02:23:12.509Z,10.10
2017-10-13T02:25:40.015Z,10.00
2017-10-13T02:28:07.524Z,10.00
2017-10-13T02:30:35.022Z,9.90
2017-10-13T02:33:02.563Z,10.00
2017-10-13T02:35:30.225Z,10.00
2017-10-13T02:37:58.008Z,10.00
2017-10-13T02:40:25.752Z,9.90
2017-10-13T02:42:53.273Z,9.90
2017-10-13T02:45:20.933Z,9.90
2017-10-13T02:47:48.437Z,9.80
2017-10-13T02:50:15.931Z,9.90
2017-10-13T02:52:43.956Z,9.80
2017-10-13T02:55:11.565Z,9.80
2017-10-13T02:57:39.875Z,9.90
2017-10-13T03:00:07.359Z,9.90
2017-10-13T03:02:34.883Z,9.80
2017-10-13T03:05:02.475Z,9.80
2017-10-13T03:07:30.244Z,9.80
2017-10-13T03:09:57.748Z,9.80
2017-10-13T03:12:25.462Z,9.90
2017-10-13T03:14:53.217Z,9.90
2017-10-13T03:17:20.716Z,9.90
2017-10-13T03:19:48.227Z,9.80
2017-10-13T03:22:15.952Z,9.90
2017-10-13T03:24:43.480Z,9.90
2017-10-13T03:27:11.121Z,9.90
2017-10-13T03:29:38.645Z,10.00
2017-10-13T03:32:06.153Z,10.00
2017-10-13T03:34:33.800Z,10.00
2017-10-13T03:37:02.805Z,9.90
2017-10-13T03:39:30.703Z,9.90
2017-10-13T03:41:58.212Z,10.00
2017-10-13T03:44:25.740Z,10.00
2017-10-13T03:46:53.236Z,10.00
2017-10-13T03:49:20.753Z,10.00
2017-10-13T03:51:48.264Z,10.00
2017-10-13T03:54:15.768Z,10.00
2017-10-13T03:56:43.280Z,10.00
2017-10-13T03:59:10.794Z,10.00
2017-10-13T04:01:38.308Z,10.00
2017-10-13T04:04:06.028Z,10.00
2017-10-13T04:06:33.541Z,10.00
2017-10-13T04:09:01.060Z,10.00
2017-10-13T04:11:28.560Z,9.90
2017-10-13T04:13:56.129Z,10.00
2017-10-13T04:16:24.148Z,9.90
2017-10-13T04:18:51.656Z,9.90
2017-10-13T04:21:19.157Z,9.90
2017-10-13T04:23:46.651Z,9.90
2017-10-13T04:26:14.330Z,9.90
2017-10-13T04:28:41.824Z,9.90
2017-10-13T04:31:09.360Z,9.80
2017-10-13T04:33:37.544Z,9.90
2017-10-13T04:36:05.041Z,9.90
2017-10-13T04:38:32.565Z,9.80
2017-10-13T04:41:00.066Z,9.90
2017-10-13T04:43:27.619Z,9.80
2017-10-13T04:45:55.893Z,9.90
2017-10-13T04:48:23.612Z,9.90
2017-10-13T04:50:51.112Z,9.90
2017-10-13T04:53:18.624Z,9.90
2017-10-13T04:55:46.334Z,9.90
2017-10-13T04:58:14.064Z,9.90
2017-10-13T05:00:41.595Z,9.90
2017-10-13T05:03:09.093Z,9.80
2017-10-13T05:05:36.590Z,9.80
2017-10-13T05:08:04.892Z,9.90
2017-10-13T05:10:32.399Z,9.90
2017-10-13T05:12:59.933Z,9.80
2017-10-13T05:15:27.493Z,9.90
2017-10-13T05:17:55.006Z,9.90
2017-10-13T05:20:22.488Z,9.80
2017-10-13T05:22:50.247Z,9.80
2017-10-13T05:25:17.840Z,9.80
2017-10-13T05:27:45.373Z,9.80
2017-10-13T05:30:12.876Z,9.80
2017-10-13T05:32:40.383Z,9.90
2017-10-13T05:35:08.034Z,9.80
2017-10-13T05:37:35.516Z,9.80
2017-10-13T05:40:03.120Z,9.80
2017-10-13T05:42:31.444Z,9.90
2017-10-13T05:44:59.126Z,9.90
2017-10-13T05:47:26.625Z,9.90
2017-10-13T05:49:54.564Z,9.90
2017-10-13T05:52:22.081Z,10.00
2017-10-13T05:54:49.744Z,10.00
2017-10-13T05:57:17.226Z,10.00
2017-10-13T05:59:44.759Z,10.00
2017-10-13T06:02:12.263Z,9.90
2017-10-13T06:04:39.972Z,10.00
2017-10-13T06:07:07.500Z,10.20
2017-10-13T06:09:35.220Z,10.50
2017-10-13T06:12:03.004Z,10.40
2017-10-13T06:14:30.740Z,10.40
2017-10-13T06:16:58.527Z,10.40
2017-10-13T06:19:26.360Z,10.40
2017-10-13T06:21:53.889Z,10.40
2017-10-13T06:24:21.561Z,10.50
2017-10-13T06:26:49.154Z,10.50
2017-10-13T06:29:16.887Z,10.60
2017-10-13T06:31:44.576Z,10.20
2017-10-13T06:34:12.273Z,10.10
2017-10-13T06:36:39.777Z,10.10
2017-10-13T06:39:07.456Z,10.00
2017-10-13T06:41:35.017Z,10.10
2017-10-13T06:44:02.600Z,10.10
2017-10-13T06:46:30.127Z,10.10
2017-10-13T06:48:58.041Z,10.10
2017-10-13T06:51:25.555Z,10.20
2017-10-13T06:53:53.076Z,10.20
2017-10-13T06:56:20.585Z,10.30
2017-10-13T06:58:48.109Z,10.30
2017-10-13T07:01:16.143Z,10.30
2017-10-13T07:03:43.652Z,10.40
2017-10-13T07:06:11.159Z,10.50
2017-10-13T07:08:39.568Z,10.50
2017-10-13T07:11:07.063Z,10.50
2017-10-13T07:13:34.573Z,10.50
2017-10-13T07:16:02.396Z,10.60
2017-10-13T07:18:29.929Z,10.60
2017-10-13T07:20:57.443Z,10.60
2017-10-13T07:23:25.044Z,10.70
2017-10-13T07:25:52.584Z,10.80
2017-10-13T07:28:20.114Z,10.80
2017-10-13T07:30:48.760Z,11.00
2017-10-13T07:33:16.272Z,11.00
2017-10-13T07:35:43.825Z,11.00
2017-10-13T07:38:11.337Z,11.10
2017-10-13T07:40:38.856Z,11.10
2017-10-13T07:43:06.540Z,11.20
2017-10-13T07:45:34.178Z,11.20
2017-10-13T07:48:01.792Z,11.20
2017-10-13T07:50:29.327Z,11.30
2017-10-13T07:52:56.839Z,11.40
2017-10-13T07:55:24.370Z,11.30
2017-10-13T07:57:51.903Z,11.30
2017-10-13T08:00:19.456Z,11.40
2017-10-13T08:02:47.168Z,11.30
2017-10-13T08:05:15.635Z,11.40
2017-10-13T08:07:43.160Z,11.50
2017-10-13T08:10:10.784Z,11.40
2017-10-13T08:12:38.331Z,11.40
2017-10-13T08:15:06.676Z,11.40
2017-10-13T08:17:34.290Z,11.40
2017-10-13T08:20:01.969Z,11.50
2017-10-13T08:22:29.536Z,11.50
2017-10-13T08:24:57.387Z,11.60
2017-10-13T08:27:24.896Z,11.70
2017-10-13T08:29:53.432Z,11.70
2017-10-13T08:32:20.966Z,11.70
2017-10-13T08:34:48.625Z,11.70
2017-10-13T08:37:16.420Z,11.80
2017-10-13T08:39:43.952Z,11.80
2017-10-13T08:42:11.625Z,11.90
2017-10-13T08:44:39.136Z,11.90
2017-10-13T08:47:06.820Z,12.00
2017-10-13T08:49:34.342Z,12.10
2017-10-13T08:52:01.831Z,12.10
2017-10-13T08:54:29.420Z,12.10
2017-10-13T08:56:57.062Z,12.10
2017-10-13T08:59:24.552Z,12.20
2017-10-13T09:01:52.148Z,12.20
2017-10-13T09:04:19.688Z,12.20
2017-10-13T09:06:47.188Z,12.20
2017-10-13T09:09:14.703Z,12.30
2017-10-13T09:11:42.222Z,12.40
2017-10-13T09:14:09.823Z,12.40
2017-10-13T09:16:37.421Z,12.40
2017-10-13T09:19:05.109Z,12.40
2017-10-13T09:21:32.676Z,12.60
2017-10-13T09:24:00.224Z,12.60
2017-10-13T09:26:27.736Z,12.60
2017-10-13T09:28:55.243Z,12.70
2017-10-13T09:31:22.911Z,12.80
2017-10-13T09:33:50.683Z,12.80
2017-10-13T09:36:18.192Z,12.80
2017-10-13T09:38:45.949Z,12.90
2017-10-13T09:41:13.468Z,12.90
2017-10-13T09:43:41.160Z,12.90
2017-10-13T09:46:08.668Z,12.90
2017-10-13T09:48:36.188Z,12.90
2017-10-13T09:51:04.000Z,13.00
2017-10-13T09:53:31.556Z,13.00
2017-10-13T09:55:59.067Z,13.00
2017-10-13T09:58:27.409Z,13.20
2017-10-13T10:00:55.147Z,13.30
2017-10-13T10:03:22.870Z,13.40
2017-10-13T10:05:50.375Z,13.40
2017-10-13T10:08:17.892Z,13.40
2017-10-13T10:10:45.440Z,13.40
2017-10-13T10:13:13.726Z,13.60
2017-10-13T10:15:42.436Z,13.60
2017-10-13T10:18:10.712Z,13.70
2017-10-13T10:20:39.059Z,13.80
2017-10-13T10:23:06.936Z,13.70
2017-10-13T10:25:34.437Z,13.70
2017-10-13T10:28:03.130Z,13.80
2017-10-13T10:30:30.958Z,13.70
2017-10-13T10:32:58.511Z,13.80
2017-10-13T10:35:26.033Z,13.80
2017-10-13T10:37:53.529Z,13.80
2017-10-13T10:40:21.045Z,13.90
2017-10-13T10:42:48.546Z,14.20
2017-10-13T10:45:16.099Z,14.30
2017-10-13T10:47:43.596Z,14.30
2017-10-13T10:50:11.924Z,14.40
2017-10-13T10:52:39.445Z,14.30
2017-10-13T10:55:06.957Z,14.30
2017-10-13T10:57:34.466Z,14.50
2017-10-13T11:00:01.989Z,14.60
2017-10-13T11:02:29.554Z,14.50
2017-10-13T11:04:57.316Z,14.60
2017-10-13T11:07:24.824Z,14.60
2017-10-13T11:09:52.501Z,14.60
2017-10-13T11:12:20.006Z,14.60
2017-10-13T11:14:47.516Z,14.60
2017-10-13T11:17:15.039Z,14.60
2017-10-13T11:19:42.677Z,14.70
2017-10-13T11:22:10.188Z,14.60
2017-10-13T11:24:37.888Z,14.70
2017-10-13T11:27:05.836Z,14.70
2017-10-13T11:29:33.339Z,14.80
2017-10-13T11:32:00.850Z,15.00
2017-10-13T11:34:28.664Z,15.00
2017-10-13T11:36:56.374Z,14.90
2017-10-13T11:39:23.868Z,14.80
2017-10-13T11:41:51.390Z,14.90
2017-10-13T11:44:19.082Z,15.00
2017-10-13T11:46:47.884Z,15.00
2017-10-13T11:49:15.607Z,15.00
2017-10-13T11:51:43.105Z,15.10
2017-10-13T11:54:10.658Z,15.10
2017-10-13T11:56:38.172Z,15.10
2017-10-13T11:59:05.732Z,15.00
2017-10-13T12:01:33.232Z,14.90
2017-10-13T12:04:00.769Z,15.00
2017-10-13T12:06:28.336Z,15.10
2017-10-13T12:08:55.845Z,15.20
2017-10-13T12:11:23.396Z,15.30
2017-10-13T12:13:51.672Z,15.30
2017-10-13T12:16:19.292Z,15.30
2017-10-13T12:18:46.833Z,15.30
2017-10-13T12:21:14.312Z,15.30
2017-10-13T12:23:41.829Z,15.20
2017-10-13T12:26:09.504Z,15.20
2017-10-13T12:28:37.028Z,15.20
2017-10-13T12:31:04.744Z,15.10
2017-10-13T12:33:32.253Z,15.20
2017-10-13T12:35:59.960Z,15.10
2017-10-13T12:38:27.463Z,15.10
2017-10-13T12:40:55.669Z,15.10
2017-10-13T12:43:23.200Z,15.10
2017-10-13T12:45:51.000Z,15.10
2017-10-13T12:48:18.615Z,15.20
2017-10-13T12:50:47.156Z,15.30
2017-10-13T12:53:14.664Z,15.20
2017-10-13T12:55:43.060Z,15.40
2017-10-13T12:58:10.569Z,15.40
2017-10-13T13:00:38.067Z,15.30
2017-10-13T13:03:05.643Z,15.30
2017-10-13T13:05:33.143Z,15.30
2017-10-13T13:08:00.653Z,15.30
2017-10-13T13:10:28.352Z,15.30
2017-10-13T13:12:55.868Z,15.20
2017-10-13T13:15:23.380Z,15.30
2017-10-13T13:17:50.875Z,15.30
2017-10-13T13:20:18.476Z,15.20
2017-10-13T13:22:45.987Z,15.30
2017-10-13T13:25:13.736Z,15.30
2017-10-13T13:27:41.463Z,15.30
2017-10-13T13:30:09.098Z,15.40
2017-10-13T13:32:36.864Z,15.50
2017-10-13T13:35:05.667Z,15.50
2017-10-13T13:37:33.436Z,15.50
2017-10-13T13:40:00.941Z,15.60
2017-10-13T13:42:28.664Z,15.60
2017-10-13T13:44:56.168Z,15.80
2017-10-13T13:47:23.687Z,15.90
2017-10-13T13:49:51.193Z,15.80
2017-10-13T13:52:18.805Z,15.80
2017-10-13T13:54:46.300Z,15.70
2017-10-13T13:57:13.860Z,15.80
2017-10-13T13:59:41.382Z,15.70
2017-10-13T14:02:08.884Z,15.80
2017-10-13T14:04:36.684Z,15.80
2017-10-13T14:07:04.192Z,15.60
2017-10-13T14:09:31.708Z,15.80
2017-10-13T14:11:59.326Z,15.70
2017-10-13T14:14:26.837Z,15.60
2017-10-13T14:16:54.557Z,15.70
2017-10-13T14:19:22.069Z,15.70
2017-10-13T14:21:49.798Z,15.70
2017-10-13T14:24:17.309Z,15.70
2017-10-13T14:26:44.964Z,15.70
2017-10-13T14:29:12.491Z,15.60
2017-10-13T14:31:39.992Z,15.70
2017-10-13T14:34:07.510Z,15.70
2017-10-13T14:36:34.999Z,15.70
2017-10-13T14:39:03.276Z,15.90
2017-10-13T14:41:30.800Z,15.90
2017-10-13T14:43:58.333Z,16.00
2017-10-13T14:46:25.837Z,15.90
2017-10-13T14:48:54.250Z,16.00
2017-10-13T14:51:21.764Z,16.00
2017-10-13T14:53:49.269Z,16.10
2017-10-13T14:56:16.788Z,16.10
2017-10-13T14:58:44.285Z,16.10
2017-10-13T15:01:11.789Z,16.10
2017-10-13T15:03:39.297Z,16.10
2017-10-13T15:06:07.096Z,16.00
2017-10-13T15:08:34.726Z,15.90
2017-10-13T15:11:02.223Z,15.90
2017-10-13T15:13:29.760Z,15.90
2017-10-13T15:15:57.272Z,15.80
2017-10-13T15:18:24.776Z,15.80
2017-10-13T15:20:52.282Z,15.80
2017-10-13T15:23:20.548Z,15.80
2017-10-13T15:25:53.677Z,15.80
2017-10-13T15:28:26.928Z,15.80
2017-10-13T15:31:01.176Z,15.70
2017-10-13T15:33:34.264Z,15.70
2017-10-13T15:36:07.504Z,15.70
2017-10-13T15:38:40.667Z,15.70
2017-10-13T15:41:29.256Z,15.70
2017-10-13T15:44:02.343Z,15.70
2017-10-13T15:46:35.695Z,15.70
2017-10-13T15:49:08.972Z,15.60
2017-10-13T15:51:42.292Z,15.60
2017-10-13T15:54:09.820Z,15.50
2017-10-13T15:56:37.498Z,15.50
2017-10-13T15:59:04.988Z,15.50
2017-10-13T16:01:32.535Z,15.50
2017-10-13T16:04:00.040Z,15.40
2017-10-13T16:06:27.566Z,15.40
2017-10-13T16:08:55.211Z,15.30
2017-10-13T16:11:22.721Z,15.40
2017-10-13T16:13:50.241Z,15.40
2017-10-13T16:16:17.898Z,15.40
2017-10-13T16:18:45.388Z,15.40
2017-10-13T16:21:12.896Z,15.40
2017-10-13T16:23:40.440Z,15.40
2017-10-13T16:26:07.938Z,15.40
2017-10-13T16:28:35.436Z,15.40
2017-10-13T16:31:02.962Z,15.40
2017-10-13T16:33:30.509Z,15.40
2017-10-13T16:35:58.158Z,15.40
2017-10-13T16:38:25.916Z,15.40
2017-10-13T16:40:53.439Z,15.40
2017-10-13T16:43:21.145Z,15.50
2017-10-13T16:45:48.658Z,15.50
2017-10-13T16:48:16.157Z,15.50
2017-10-13T16:50:43.672Z,15.50
2017-10-13T16:53:11.932Z,15.60
2017-10-13T16:55:39.440Z,15.60
2017-10-13T16:58:06.949Z,15.60
2017-10-13T17:00:35.488Z,15.60
2017-10-13T17:03:03.095Z,15.60
2017-10-13T17:05:31.360Z,15.80
2017-10-13T17:07:58.872Z,15.80
2017-10-13T17:10:26.375Z,15.90
2017-10-13T17:12:54.760Z,16.00
2017-10-13T17:15:23.292Z,16.00
2017-10-13T17:17:50.813Z,16.00
2017-10-13T17:20:18.512Z,16.00
2017-10-13T17:22:46.253Z,15.90
2017-10-13T17:25:13.779Z,15.80
2017-10-13T17:27:41.279Z,15.70
2017-10-13T17:30:08.833Z,15.70
2017-10-13T17:32:36.336Z,15.70
2017-10-13T17:35:03.849Z,15.70
2017-10-13T17:37:31.357Z,15.70
2017-10-13T17:39:58.871Z,15.70
2017-10-13T17:42:26.375Z,15.70
2017-10-13T17:44:53.876Z,15.70
2017-10-13T17:47:21.944Z,15.70
2017-10-13T17:49:49.675Z,15.70
2017-10-13T17:52:17.948Z,15.60
2017-10-13T17:54:45.472Z,15.60
2017-10-13T17:57:12.999Z,15.60
2017-10-13T17:59:40.489Z,15.60
2017-10-13T18:02:08.216Z,15.60
2017-10-13T18:04:35.740Z,15.60
2017-10-13T18:07:03.248Z,15.60
2017-10-13T18:09:30.779Z,15.60
2017-10-13T18:11:58.754Z,15.60
2017-10-13T18:14:26.237Z,15.70
2017-10-13T18:16:53.762Z,15.60
2017-10-13T18:19:21.272Z,15.70
2017-10-13T18:21:48.790Z,15.70
2017-10-13T18:24:16.290Z,15.70
2017-10-13T18:26:43.838Z,15.70
2017-10-13T18:29:11.346Z,15.70
2017-10-13T18:31:38.864Z,15.70
2017-10-13T18:34:06.385Z,15.70
2017-10-13T18:36:33.896Z,15.70
2017-10-13T18:39:01.404Z,15.70
2017-10-13T18:41:28.921Z,15.80
2017-10-13T18:43:56.642Z,15.80
2017-10-13T18:46:24.157Z,15.80
2017-10-13T18:48:51.668Z,15.80
2017-10-13T18:51:19.183Z,15.80
2017-10-13T18:53:46.685Z,15.90
2017-10-13T18:56:14.233Z,15.90
2017-10-13T18:58:41.748Z,15.90
2017-10-13T19:01:09.257Z,15.90
2017-10-13T19:03:36.877Z,15.90
2017-10-13T19:06:04.387Z,16.00
2017-10-13T19:08:32.094Z,15.90
2017-10-13T19:10:59.593Z,15.90
2017-10-13T19:13:27.169Z,16.00
2017-10-13T19:15:54.675Z,16.00
2017-10-13T19:18:22.258Z,16.00
2017-10-13T19:20:49.756Z,16.00
2017-10-13T19:23:18.115Z,16.00
2017-10-13T19:25:45.854Z,16.00
2017-10-13T19:28:13.391Z,16.00
2017-10-13T19:30:41.083Z,16.00
2017-10-13T19:33:08.836Z,16.00
2017-10-13T19:35:36.347Z,16.00
2017-10-13T19:38:03.877Z,16.00
2017-10-13T19:40:31.628Z,16.00
2017-10-13T19:42:59.115Z,16.00
2017-10-13T19:45:28.188Z,15.90
2017-10-13T19:47:55.700Z,15.90
2017-10-13T19:50:23.305Z,15.90
2017-10-13T19:52:50.808Z,15.90
2017-10-13T19:55:18.378Z,15.90
2017-10-13T19:57:45.873Z,16.00
2017-10-13T20:00:13.400Z,16.00
2017-10-13T20:02:41.040Z,16.00
2017-10-13T20:05:08.560Z,16.00
2017-10-13T20:07:36.071Z,16.00
2017-10-13T20:10:03.584Z,16.00
2017-10-13T20:12:31.124Z,15.90
2017-10-13T20:14:58.644Z,15.90
2017-10-13T20:17:26.165Z,15.90
2017-10-13T20:19:53.680Z,16.00
2017-10-13T20:22:21.200Z,16.00
2017-10-13T20:24:49.492Z,16.00
2017-10-13T20:27:16.984Z,16.00
2017-10-13T20:29:44.636Z,15.90
2017-10-13T20:32:12.144Z,16.00
2017-10-13T20:34:39.667Z,15.90
2017-10-13T20:37:07.174Z,16.00
2017-10-13T20:39:34.747Z,16.00
2017-10-13T20:42:02.407Z,15.90
2017-10-13T20:44:29.903Z,16.00
2017-10-13T20:46:57.420Z,16.00
2017-10-13T20:49:24.929Z,15.90
2017-10-13T20:51:52.450Z,15.90
2017-10-13T20:54:19.998Z,16.20
2017-10-13T20:56:47.516Z,16.40
2017-10-13T20:59:15.031Z,16.50
2017-10-13T21:01:42.804Z,16.40
2017-10-13T21:04:10.328Z,16.50
2017-10-13T21:06:37.845Z,16.40
2017-10-13T21:09:05.335Z,16.40
2017-10-13T21:11:32.856Z,16.40
2017-10-13T21:14:00.358Z,16.40
2017-10-13T21:16:27.885Z,16.40
2017-10-13T21:18:55.787Z,16.40
2017-10-13T21:21:23.303Z,16.30
2017-10-13T21:23:51.571Z,16.50
2017-10-13T21:26:19.120Z,16.50
2017-10-13T21:28:46.632Z,16.40
2017-10-13T21:31:14.152Z,16.40
2017-10-13T21:33:42.431Z,16.50
2017-10-13T21:36:09.945Z,16.50
2017-10-13T21:38:37.589Z,16.50
2017-10-13T21:41:05.352Z,16.50
2017-10-13T21:43:33.541Z,16.50
2017-10-13T21:46:01.057Z,16.30
2017-10-13T21:48:28.594Z,16.10
2017-10-13T21:50:56.102Z,16.10
2017-10-13T21:53:23.631Z,16.00
2017-10-13T21:55:51.146Z,16.00
2017-10-13T21:58:18.673Z,16.00
2017-10-13T22:00:46.229Z,16.00
2017-10-13T22:03:13.745Z,16.00
2017-10-13T22:05:41.249Z,16.00
2017-10-13T22:08:08.757Z,16.00
2017-10-13T22:10:36.280Z,16.00
2017-10-13T22:13:03.838Z,16.00
2017-10-13T22:15:31.353Z,16.00
2017-10-13T22:17:58.874Z,16.00
2017-10-13T22:20:26.403Z,16.00
2017-10-13T22:22:53.919Z,16.00
2017-10-13T22:25:22.205Z,16.00
2017-10-13T22:27:49.752Z,16.00
2017-10-13T22:30:18.067Z,16.00
2017-10-13T22:32:45.569Z,16.00
2017-10-13T22:35:13.102Z,16.00
2017-10-13T22:37:40.641Z,16.00
2017-10-13T22:40:08.441Z,13.70
2017-10-13T22:42:35.963Z,16.00
2017-10-13T22:45:03.485Z,16.00
2017-10-13T22:47:31.752Z,16.10
2017-10-13T22:49:59.271Z,16.10
2017-10-13T22:52:26.907Z,16.10
2017-10-13T22:54:54.433Z,16.10
2017-10-13T22:57:22.736Z,16.00
2017-10-13T22:59:50.253Z,16.10
2017-10-13T23:02:17.763Z,16.00
2017-10-13T23:04:45.288Z,16.10
2017-10-13T23:07:13.569Z,16.10
2017-10-13T23:09:41.083Z,16.10
2017-10-13T23:12:08.611Z,16.10
2017-10-13T23:14:36.125Z,16.10
2017-10-13T23:17:03.652Z,16.10
2017-10-13T23:19:31.164Z,16.10
2017-10-13T23:21:58.690Z,16.10
2017-10-13T23:24:26.205Z,16.10
2017-10-13T23:26:53.746Z,16.10
2017-10-13T23:29:21.285Z,16.10
2017-10-13T23:31:48.809Z,16.20
2017-10-13T23:34:16.320Z,16.20
2017-10-13T23:36:43.864Z,16.10
2017-10-13T23:39:11.388Z,16.10
2017-10-13T23:41:40.416Z,16.10
2017-10-13T23:44:07.928Z,16.10
2017-10-13T23:46:35.438Z,16.10
2017-10-13T23:49:02.953Z,16.10
2017-10-13T23:51:30.476Z,16.10
2017-10-13T23:53:57.996Z,16.10
2017-10-13T23:56:25.735Z,16.10
2017-10-13T23:58:53.254Z,16.20
